sensor_id;sensor_type;location;lat;lon;timestamp;temperature;humidity
72936;DHT22;61085;48.804;9.228;2022-08-23T00:00:32;20.10;53.10
72936;DHT22;61085;48.804;9.228;2022-08-23T00:02:57;20.10;53.00
72936;DHT22;61085;48.804;9.228;2022-08-23T00:05:23;20.10;53.20
72936;DHT22;61085;48.804;9.228;2022-08-23T00:07:49;19.90;53.20
72936;DHT22;61085;48.804;9.228;2022-08-23T00:10:15;20.10;53.50
72936;DHT22;61085;48.804;9.228;2022-08-23T00:12:42;20.00;53.50
72936;DHT22;61085;48.804;9.228;2022-08-23T00:15:10;20.00;53.50
72936;DHT22;61085;48.804;9.228;2022-08-23T00:17:36;20.00;53.40
72936;DHT22;61085;48.804;9.228;2022-08-23T00:20:06;20.00;53.40
72936;DHT22;61085;48.804;9.228;2022-08-23T00:22:33;19.90;53.70
72936;DHT22;61085;48.804;9.228;2022-08-23T00:24:59;19.80;53.90
72936;DHT22;61085;48.804;9.228;2022-08-23T00:27:24;19.70;54.00
72936;DHT22;61085;48.804;9.228;2022-08-23T00:29:53;19.70;54.30
72936;DHT22;61085;48.804;9.228;2022-08-23T00:32:25;19.60;54.30
72936;DHT22;61085;48.804;9.228;2022-08-23T00:34:51;19.60;54.40
72936;DHT22;61085;48.804;9.228;2022-08-23T00:37:17;19.60;54.60
72936;DHT22;61085;48.804;9.228;2022-08-23T00:39:43;19.50;54.80
72936;DHT22;61085;48.804;9.228;2022-08-23T00:43:10;19.50;54.80
72936;DHT22;61085;48.804;9.228;2022-08-23T00:45:36;19.50;55.00
72936;DHT22;61085;48.804;9.228;2022-08-23T00:48:29;19.50;55.00
72936;DHT22;61085;48.804;9.228;2022-08-23T00:51:39;19.50;55.00
72936;DHT22;61085;48.804;9.228;2022-08-23T00:54:08;19.60;54.90
72936;DHT22;61085;48.804;9.228;2022-08-23T00:56:36;19.70;54.70
72936;DHT22;61085;48.804;9.228;2022-08-23T00:59:04;19.60;54.70
72936;DHT22;61085;48.804;9.228;2022-08-23T01:01:30;19.60;54.90
72936;DHT22;61085;48.804;9.228;2022-08-23T01:03:58;19.50;55.10
72936;DHT22;61085;48.804;9.228;2022-08-23T01:06:46;19.50;55.10
72936;DHT22;61085;48.804;9.228;2022-08-23T01:09:15;19.50;55.30
72936;DHT22;61085;48.804;9.228;2022-08-23T01:11:47;19.60;55.30
72936;DHT22;61085;48.804;9.228;2022-08-23T01:14:43;19.60;55.30
72936;DHT22;61085;48.804;9.228;2022-08-23T01:17:50;19.50;55.30
72936;DHT22;61085;48.804;9.228;2022-08-23T01:20:21;19.40;55.50
72936;DHT22;61085;48.804;9.228;2022-08-23T01:22:58;19.30;55.70
72936;DHT22;61085;48.804;9.228;2022-08-23T01:25:27;19.20;56.20
72936;DHT22;61085;48.804;9.228;2022-08-23T01:27:53;19.10;56.40
72936;DHT22;61085;48.804;9.228;2022-08-23T01:30:21;19.10;56.70
72936;DHT22;61085;48.804;9.228;2022-08-23T01:32:51;19.00;56.80
72936;DHT22;61085;48.804;9.228;2022-08-23T01:35:19;19.00;57.20
72936;DHT22;61085;48.804;9.228;2022-08-23T01:37:46;19.10;57.10
72936;DHT22;61085;48.804;9.228;2022-08-23T01:40:12;19.00;57.20
72936;DHT22;61085;48.804;9.228;2022-08-23T01:42:38;18.90;57.50
72936;DHT22;61085;48.804;9.228;2022-08-23T01:45:09;18.90;57.80
72936;DHT22;61085;48.804;9.228;2022-08-23T01:47:35;18.90;57.70
72936;DHT22;61085;48.804;9.228;2022-08-23T01:50:00;18.90;57.70
72936;DHT22;61085;48.804;9.228;2022-08-23T01:52:26;19.00;57.60
72936;DHT22;61085;48.804;9.228;2022-08-23T01:54:52;18.90;57.80
72936;DHT22;61085;48.804;9.228;2022-08-23T01:57:18;18.80;58.10
72936;DHT22;61085;48.804;9.228;2022-08-23T01:59:43;18.80;58.30
72936;DHT22;61085;48.804;9.228;2022-08-23T02:02:09;18.90;58.40
72936;DHT22;61085;48.804;9.228;2022-08-23T02:04:35;18.90;58.40
72936;DHT22;61085;48.804;9.228;2022-08-23T02:07:00;18.80;58.30
72936;DHT22;61085;48.804;9.228;2022-08-23T02:09:26;18.80;58.40
72936;DHT22;61085;48.804;9.228;2022-08-23T02:11:51;18.80;58.30
72936;DHT22;61085;48.804;9.228;2022-08-23T02:14:19;18.80;58.20
72936;DHT22;61085;48.804;9.228;2022-08-23T02:16:50;18.80;58.20
72936;DHT22;61085;48.804;9.228;2022-08-23T02:19:17;18.80;58.40
72936;DHT22;61085;48.804;9.228;2022-08-23T02:21:43;18.70;58.40
72936;DHT22;61085;48.804;9.228;2022-08-23T02:24:15;18.90;58.00
72936;DHT22;61085;48.804;9.228;2022-08-23T02:26:44;18.90;58.00
72936;DHT22;61085;48.804;9.228;2022-08-23T02:29:11;18.90;58.00
72936;DHT22;61085;48.804;9.228;2022-08-23T02:31:37;18.80;58.00
72936;DHT22;61085;48.804;9.228;2022-08-23T02:34:04;18.70;58.40
72936;DHT22;61085;48.804;9.228;2022-08-23T02:36:30;18.70;58.50
72936;DHT22;61085;48.804;9.228;2022-08-23T02:38:56;18.80;58.80
72936;DHT22;61085;48.804;9.228;2022-08-23T02:41:22;19.00;58.80
72936;DHT22;61085;48.804;9.228;2022-08-23T02:43:51;18.70;58.60
72936;DHT22;61085;48.804;9.228;2022-08-23T02:46:18;18.80;58.40
72936;DHT22;61085;48.804;9.228;2022-08-23T02:48:43;18.60;58.70
72936;DHT22;61085;48.804;9.228;2022-08-23T02:51:09;18.60;58.90
72936;DHT22;61085;48.804;9.228;2022-08-23T02:53:35;18.60;59.30
72936;DHT22;61085;48.804;9.228;2022-08-23T02:56:02;18.60;58.90
72936;DHT22;61085;48.804;9.228;2022-08-23T02:58:27;18.50;59.10
72936;DHT22;61085;48.804;9.228;2022-08-23T03:00:53;18.50;59.30
72936;DHT22;61085;48.804;9.228;2022-08-23T03:03:20;18.50;59.40
72936;DHT22;61085;48.804;9.228;2022-08-23T03:05:46;18.40;59.50
72936;DHT22;61085;48.804;9.228;2022-08-23T03:08:13;18.20;60.00
72936;DHT22;61085;48.804;9.228;2022-08-23T03:10:46;18.20;60.10
72936;DHT22;61085;48.804;9.228;2022-08-23T03:13:12;18.30;60.60
72936;DHT22;61085;48.804;9.228;2022-08-23T03:15:39;18.20;60.80
72936;DHT22;61085;48.804;9.228;2022-08-23T03:18:05;18.20;60.60
72936;DHT22;61085;48.804;9.228;2022-08-23T03:20:31;18.00;60.20
72936;DHT22;61085;48.804;9.228;2022-08-23T03:22:56;18.20;60.40
72936;DHT22;61085;48.804;9.228;2022-08-23T03:25:23;18.20;60.40
72936;DHT22;61085;48.804;9.228;2022-08-23T03:27:49;18.20;60.30
72936;DHT22;61085;48.804;9.228;2022-08-23T03:30:15;18.10;60.90
72936;DHT22;61085;48.804;9.228;2022-08-23T03:32:40;18.10;61.00
72936;DHT22;61085;48.804;9.228;2022-08-23T03:35:07;18.20;61.10
72936;DHT22;61085;48.804;9.228;2022-08-23T03:37:34;18.20;60.90
72936;DHT22;61085;48.804;9.228;2022-08-23T03:39:59;18.50;61.00
72936;DHT22;61085;48.804;9.228;2022-08-23T03:42:25;18.20;61.30
72936;DHT22;61085;48.804;9.228;2022-08-23T03:44:51;18.10;60.70
72936;DHT22;61085;48.804;9.228;2022-08-23T03:47:17;18.00;60.80
72936;DHT22;61085;48.804;9.228;2022-08-23T03:49:42;18.00;61.00
72936;DHT22;61085;48.804;9.228;2022-08-23T03:52:08;18.00;61.10
72936;DHT22;61085;48.804;9.228;2022-08-23T03:54:34;18.00;60.90
72936;DHT22;61085;48.804;9.228;2022-08-23T03:57:03;18.00;61.30
72936;DHT22;61085;48.804;9.228;2022-08-23T03:59:30;17.90;61.40
72936;DHT22;61085;48.804;9.228;2022-08-23T04:01:57;17.90;61.50
72936;DHT22;61085;48.804;9.228;2022-08-23T04:04:22;17.90;61.30
72936;DHT22;61085;48.804;9.228;2022-08-23T04:06:48;18.00;61.60
72936;DHT22;61085;48.804;9.228;2022-08-23T04:09:14;17.80;61.20
72936;DHT22;61085;48.804;9.228;2022-08-23T04:11:41;17.80;61.30
72936;DHT22;61085;48.804;9.228;2022-08-23T04:14:07;17.80;61.70
72936;DHT22;61085;48.804;9.228;2022-08-23T04:16:34;17.60;61.80
72936;DHT22;61085;48.804;9.228;2022-08-23T04:19:06;17.50;62.20
72936;DHT22;61085;48.804;9.228;2022-08-23T04:21:33;17.50;62.20
72936;DHT22;61085;48.804;9.228;2022-08-23T04:23:59;17.50;62.10
72936;DHT22;61085;48.804;9.228;2022-08-23T04:26:25;17.50;62.40
72936;DHT22;61085;48.804;9.228;2022-08-23T04:28:51;17.40;63.00
72936;DHT22;61085;48.804;9.228;2022-08-23T04:31:18;17.40;63.20
72936;DHT22;61085;48.804;9.228;2022-08-23T04:33:44;17.40;63.60
72936;DHT22;61085;48.804;9.228;2022-08-23T04:36:10;17.70;63.20
72936;DHT22;61085;48.804;9.228;2022-08-23T04:38:36;17.60;63.00
72936;DHT22;61085;48.804;9.228;2022-08-23T04:41:02;17.80;63.20
72936;DHT22;61085;48.804;9.228;2022-08-23T04:43:47;17.70;62.60
72936;DHT22;61085;48.804;9.228;2022-08-23T04:46:13;17.80;61.90
72936;DHT22;61085;48.804;9.228;2022-08-23T04:48:40;17.80;62.40
72936;DHT22;61085;48.804;9.228;2022-08-23T04:51:06;17.90;62.30
72936;DHT22;61085;48.804;9.228;2022-08-23T04:53:33;17.80;61.70
72936;DHT22;61085;48.804;9.228;2022-08-23T04:56:00;18.50;60.50
72936;DHT22;61085;48.804;9.228;2022-08-23T04:58:28;19.10;58.70
72936;DHT22;61085;48.804;9.228;2022-08-23T05:00:56;19.90;56.40
72936;DHT22;61085;48.804;9.228;2022-08-23T05:03:22;20.40;54.40
72936;DHT22;61085;48.804;9.228;2022-08-23T05:05:48;21.30;52.80
72936;DHT22;61085;48.804;9.228;2022-08-23T05:08:14;21.60;50.90
72936;DHT22;61085;48.804;9.228;2022-08-23T05:10:40;21.60;50.40
72936;DHT22;61085;48.804;9.228;2022-08-23T05:13:05;22.10;49.00
72936;DHT22;61085;48.804;9.228;2022-08-23T05:15:31;22.80;47.80
72936;DHT22;61085;48.804;9.228;2022-08-23T05:17:57;23.30;46.60
72936;DHT22;61085;48.804;9.228;2022-08-23T05:20:22;23.80;44.90
72936;DHT22;61085;48.804;9.228;2022-08-23T05:22:48;24.00;44.70
72936;DHT22;61085;48.804;9.228;2022-08-23T05:25:14;24.10;44.20
72936;DHT22;61085;48.804;9.228;2022-08-23T05:27:40;24.30;43.80
72936;DHT22;61085;48.804;9.228;2022-08-23T05:30:06;24.80;42.90
72936;DHT22;61085;48.804;9.228;2022-08-23T05:32:32;25.50;41.30
72936;DHT22;61085;48.804;9.228;2022-08-23T05:34:58;26.30;40.60
72936;DHT22;61085;48.804;9.228;2022-08-23T05:37:23;25.80;40.20
72936;DHT22;61085;48.804;9.228;2022-08-23T05:39:49;26.20;39.40
72936;DHT22;61085;48.804;9.228;2022-08-23T05:42:16;26.30;39.50
72936;DHT22;61085;48.804;9.228;2022-08-23T05:44:43;26.40;38.80
72936;DHT22;61085;48.804;9.228;2022-08-23T05:47:12;26.50;38.80
72936;DHT22;61085;48.804;9.228;2022-08-23T05:49:39;27.50;37.50
72936;DHT22;61085;48.804;9.228;2022-08-23T05:52:07;27.40;37.50
72936;DHT22;61085;48.804;9.228;2022-08-23T05:54:33;27.90;36.50
72936;DHT22;61085;48.804;9.228;2022-08-23T05:56:59;28.10;36.40
72936;DHT22;61085;48.804;9.228;2022-08-23T05:59:25;28.20;35.10
72936;DHT22;61085;48.804;9.228;2022-08-23T06:01:50;28.80;35.20
72936;DHT22;61085;48.804;9.228;2022-08-23T06:04:16;29.10;33.90
72936;DHT22;61085;48.804;9.228;2022-08-23T06:06:42;29.20;33.70
72936;DHT22;61085;48.804;9.228;2022-08-23T06:09:12;29.70;33.40
72936;DHT22;61085;48.804;9.228;2022-08-23T06:11:39;30.10;32.00
72936;DHT22;61085;48.804;9.228;2022-08-23T06:14:07;30.00;32.00
72936;DHT22;61085;48.804;9.228;2022-08-23T06:16:37;30.40;31.00
72936;DHT22;61085;48.804;9.228;2022-08-23T06:19:05;31.40;30.30
72936;DHT22;61085;48.804;9.228;2022-08-23T06:21:32;30.80;30.50
72936;DHT22;61085;48.804;9.228;2022-08-23T06:23:58;31.00;30.40
72936;DHT22;61085;48.804;9.228;2022-08-23T06:26:32;30.80;31.10
72936;DHT22;61085;48.804;9.228;2022-08-23T06:29:00;31.20;30.30
72936;DHT22;61085;48.804;9.228;2022-08-23T06:31:30;31.40;29.90
72936;DHT22;61085;48.804;9.228;2022-08-23T06:34:28;31.50;29.90
72936;DHT22;61085;48.804;9.228;2022-08-23T06:37:08;30.60;31.00
72936;DHT22;61085;48.804;9.228;2022-08-23T06:39:34;29.70;32.70
72936;DHT22;61085;48.804;9.228;2022-08-23T06:42:10;28.00;34.80
72936;DHT22;61085;48.804;9.228;2022-08-23T06:44:36;27.00;37.00
72936;DHT22;61085;48.804;9.228;2022-08-23T06:47:03;26.90;37.10
72936;DHT22;61085;48.804;9.228;2022-08-23T06:49:29;26.90;37.70
72936;DHT22;61085;48.804;9.228;2022-08-23T06:51:56;26.90;36.60
72936;DHT22;61085;48.804;9.228;2022-08-23T06:54:26;26.40;37.40
72936;DHT22;61085;48.804;9.228;2022-08-23T06:56:52;26.20;38.10
72936;DHT22;61085;48.804;9.228;2022-08-23T06:59:19;26.30;38.70
72936;DHT22;61085;48.804;9.228;2022-08-23T07:01:46;25.90;39.40
72936;DHT22;61085;48.804;9.228;2022-08-23T07:04:15;25.90;39.60
72936;DHT22;61085;48.804;9.228;2022-08-23T07:06:41;25.80;39.80
72936;DHT22;61085;48.804;9.228;2022-08-23T07:09:07;25.70;40.00
72936;DHT22;61085;48.804;9.228;2022-08-23T07:11:33;26.00;40.10
72936;DHT22;61085;48.804;9.228;2022-08-23T07:14:01;25.60;40.50
72936;DHT22;61085;48.804;9.228;2022-08-23T07:16:39;25.30;41.60
72936;DHT22;61085;48.804;9.228;2022-08-23T07:19:05;25.30;41.00
72936;DHT22;61085;48.804;9.228;2022-08-23T07:21:31;25.50;41.60
72936;DHT22;61085;48.804;9.228;2022-08-23T07:23:58;25.90;41.20
72936;DHT22;61085;48.804;9.228;2022-08-23T07:26:24;26.10;40.60
72936;DHT22;61085;48.804;9.228;2022-08-23T07:28:50;26.60;39.70
72936;DHT22;61085;48.804;9.228;2022-08-23T07:31:25;26.40;38.60
72936;DHT22;61085;48.804;9.228;2022-08-23T07:33:53;26.40;39.70
72936;DHT22;61085;48.804;9.228;2022-08-23T07:36:20;26.90;40.30
72936;DHT22;61085;48.804;9.228;2022-08-23T07:38:47;27.20;38.30
72936;DHT22;61085;48.804;9.228;2022-08-23T07:41:13;27.50;38.40
72936;DHT22;61085;48.804;9.228;2022-08-23T07:43:39;27.60;37.50
72936;DHT22;61085;48.804;9.228;2022-08-23T07:46:05;28.00;38.10
72936;DHT22;61085;48.804;9.228;2022-08-23T07:48:31;28.00;36.90
72936;DHT22;61085;48.804;9.228;2022-08-23T07:51:02;28.10;37.30
72936;DHT22;61085;48.804;9.228;2022-08-23T07:53:28;27.90;37.50
72936;DHT22;61085;48.804;9.228;2022-08-23T07:55:54;28.00;37.50
72936;DHT22;61085;48.804;9.228;2022-08-23T07:58:22;27.60;37.00
72936;DHT22;61085;48.804;9.228;2022-08-23T08:00:47;27.40;37.60
72936;DHT22;61085;48.804;9.228;2022-08-23T08:03:14;27.60;37.50
72936;DHT22;61085;48.804;9.228;2022-08-23T08:05:41;27.90;37.80
72936;DHT22;61085;48.804;9.228;2022-08-23T08:08:07;28.20;38.10
72936;DHT22;61085;48.804;9.228;2022-08-23T08:10:39;28.40;36.20
72936;DHT22;61085;48.804;9.228;2022-08-23T08:13:06;28.30;37.40
72936;DHT22;61085;48.804;9.228;2022-08-23T08:15:32;28.70;36.70
72936;DHT22;61085;48.804;9.228;2022-08-23T08:17:58;29.00;35.50
72936;DHT22;61085;48.804;9.228;2022-08-23T08:20:24;29.40;35.00
72936;DHT22;61085;48.804;9.228;2022-08-23T08:22:51;29.10;35.40
72936;DHT22;61085;48.804;9.228;2022-08-23T08:25:17;29.00;36.10
72936;DHT22;61085;48.804;9.228;2022-08-23T08:27:43;29.10;35.30
72936;DHT22;61085;48.804;9.228;2022-08-23T08:30:10;29.00;35.60
72936;DHT22;61085;48.804;9.228;2022-08-23T08:32:36;29.00;36.50
72936;DHT22;61085;48.804;9.228;2022-08-23T08:35:03;29.00;35.10
72936;DHT22;61085;48.804;9.228;2022-08-23T08:37:29;29.30;35.60
72936;DHT22;61085;48.804;9.228;2022-08-23T08:39:56;28.90;34.50
72936;DHT22;61085;48.804;9.228;2022-08-23T08:45:24;29.20;35.40
72936;DHT22;61085;48.804;9.228;2022-08-23T08:48:03;29.70;35.30
72936;DHT22;61085;48.804;9.228;2022-08-23T08:50:50;29.00;34.00
72936;DHT22;61085;48.804;9.228;2022-08-23T08:53:23;29.30;35.40
72936;DHT22;61085;48.804;9.228;2022-08-23T08:55:54;29.10;34.00
72936;DHT22;61085;48.804;9.228;2022-08-23T08:58:26;29.50;34.80
72936;DHT22;61085;48.804;9.228;2022-08-23T09:00:53;29.00;33.70
72936;DHT22;61085;48.804;9.228;2022-08-23T09:03:20;28.60;34.10
72936;DHT22;61085;48.804;9.228;2022-08-23T09:19:12;29.40;32.30
72936;DHT22;61085;48.804;9.228;2022-08-23T09:21:54;29.60;32.00
72936;DHT22;61085;48.804;9.228;2022-08-23T09:24:20;29.60;31.30
72936;DHT22;61085;48.804;9.228;2022-08-23T09:26:47;29.90;31.10
72936;DHT22;61085;48.804;9.228;2022-08-23T09:29:28;29.90;30.10
72936;DHT22;61085;48.804;9.228;2022-08-23T09:31:57;30.10;31.60
72936;DHT22;61085;48.804;9.228;2022-08-23T09:37:20;29.20;31.20
72936;DHT22;61085;48.804;9.228;2022-08-23T09:39:52;29.40;31.30
72936;DHT22;61085;48.804;9.228;2022-08-23T09:42:35;29.30;30.80
72936;DHT22;61085;48.804;9.228;2022-08-23T09:45:26;29.00;31.00
72936;DHT22;61085;48.804;9.228;2022-08-23T09:47:49;28.70;33.60
72936;DHT22;61085;48.804;9.228;2022-08-23T09:50:24;29.00;31.60
72936;DHT22;61085;48.804;9.228;2022-08-23T09:53:05;29.10;31.30
72936;DHT22;61085;48.804;9.228;2022-08-23T09:58:06;29.20;32.30
72936;DHT22;61085;48.804;9.228;2022-08-23T10:00:40;29.50;32.00
72936;DHT22;61085;48.804;9.228;2022-08-23T10:03:26;29.50;31.00
72936;DHT22;61085;48.804;9.228;2022-08-23T10:06:00;29.60;31.60
72936;DHT22;61085;48.804;9.228;2022-08-23T10:08:32;29.60;30.50
72936;DHT22;61085;48.804;9.228;2022-08-23T10:11:26;29.60;29.80
72936;DHT22;61085;48.804;9.228;2022-08-23T10:13:52;29.00;29.00
72936;DHT22;61085;48.804;9.228;2022-08-23T10:22:39;29.10;29.40
72936;DHT22;61085;48.804;9.228;2022-08-23T10:24:54;29.20;29.80
72936;DHT22;61085;48.804;9.228;2022-08-23T10:30:26;29.40;28.10
72936;DHT22;61085;48.804;9.228;2022-08-23T10:33:10;29.40;28.70
72936;DHT22;61085;48.804;9.228;2022-08-23T10:41:41;29.60;26.50
72936;DHT22;61085;48.804;9.228;2022-08-23T10:46:21;29.50;27.60
72936;DHT22;61085;48.804;9.228;2022-08-23T10:48:54;29.30;27.00
72936;DHT22;61085;48.804;9.228;2022-08-23T10:51:30;29.10;28.20
72936;DHT22;61085;48.804;9.228;2022-08-23T10:54:01;29.50;28.90
72936;DHT22;61085;48.804;9.228;2022-08-23T10:56:28;29.50;27.90
72936;DHT22;61085;48.804;9.228;2022-08-23T10:59:19;29.40;28.80
72936;DHT22;61085;48.804;9.228;2022-08-23T11:05:07;29.80;29.50
72936;DHT22;61085;48.804;9.228;2022-08-23T11:07:41;29.80;29.00
72936;DHT22;61085;48.804;9.228;2022-08-23T11:10:31;29.90;29.10
72936;DHT22;61085;48.804;9.228;2022-08-23T11:13:21;30.00;28.50
72936;DHT22;61085;48.804;9.228;2022-08-23T11:16:14;29.70;28.30
72936;DHT22;61085;48.804;9.228;2022-08-23T11:18:48;29.90;28.90
72936;DHT22;61085;48.804;9.228;2022-08-23T11:23:50;29.90;29.30
72936;DHT22;61085;48.804;9.228;2022-08-23T11:28:52;29.80;29.60
72936;DHT22;61085;48.804;9.228;2022-08-23T11:34:23;29.50;28.80
72936;DHT22;61085;48.804;9.228;2022-08-23T11:42:31;29.10;27.50
72936;DHT22;61085;48.804;9.228;2022-08-23T11:45:21;29.10;28.00
72936;DHT22;61085;48.804;9.228;2022-08-23T11:48:03;29.10;27.80
72936;DHT22;61085;48.804;9.228;2022-08-23T11:51:27;29.20;28.40
72936;DHT22;61085;48.804;9.228;2022-08-23T11:56:42;29.30;27.40
72936;DHT22;61085;48.804;9.228;2022-08-23T12:07:54;29.20;27.80
72936;DHT22;61085;48.804;9.228;2022-08-23T12:18:42;29.20;28.70
72936;DHT22;61085;48.804;9.228;2022-08-23T12:21:15;29.20;28.30
72936;DHT22;61085;48.804;9.228;2022-08-23T12:23:47;29.30;28.90
72936;DHT22;61085;48.804;9.228;2022-08-23T12:28:53;29.40;28.40
72936;DHT22;61085;48.804;9.228;2022-08-23T12:31:38;29.20;28.10
72936;DHT22;61085;48.804;9.228;2022-08-23T12:37:05;29.50;28.80
72936;DHT22;61085;48.804;9.228;2022-08-23T12:39:39;29.80;28.90
72936;DHT22;61085;48.804;9.228;2022-08-23T12:42:26;29.80;27.60
72936;DHT22;61085;48.804;9.228;2022-08-23T12:45:01;29.70;27.70
72936;DHT22;61085;48.804;9.228;2022-08-23T12:47:28;29.80;28.10
72936;DHT22;61085;48.804;9.228;2022-08-23T12:49:59;29.80;27.80
72936;DHT22;61085;48.804;9.228;2022-08-23T12:52:30;29.70;28.30
72936;DHT22;61085;48.804;9.228;2022-08-23T12:54:57;29.70;28.40
72936;DHT22;61085;48.804;9.228;2022-08-23T12:57:37;29.50;27.90
72936;DHT22;61085;48.804;9.228;2022-08-23T13:05:30;29.40;28.00
72936;DHT22;61085;48.804;9.228;2022-08-23T13:08:02;29.70;28.00
72936;DHT22;61085;48.804;9.228;2022-08-23T13:10:29;29.80;27.80
72936;DHT22;61085;48.804;9.228;2022-08-23T13:12:55;30.10;27.30
72936;DHT22;61085;48.804;9.228;2022-08-23T13:15:46;30.10;27.10
72936;DHT22;61085;48.804;9.228;2022-08-23T13:18:30;29.90;27.60
72936;DHT22;61085;48.804;9.228;2022-08-23T13:23:50;29.70;28.00
72936;DHT22;61085;48.804;9.228;2022-08-23T13:31:59;29.30;28.60
72936;DHT22;61085;48.804;9.228;2022-08-23T13:37:08;29.70;28.00
72936;DHT22;61085;48.804;9.228;2022-08-23T13:39:48;29.70;28.10
72936;DHT22;61085;48.804;9.228;2022-08-23T13:42:23;29.50;27.90
72936;DHT22;61085;48.804;9.228;2022-08-23T13:44:49;29.30;28.40
72936;DHT22;61085;48.804;9.228;2022-08-23T13:47:23;29.40;28.50
72936;DHT22;61085;48.804;9.228;2022-08-23T13:49:49;29.50;28.30
72936;DHT22;61085;48.804;9.228;2022-08-23T13:52:16;29.40;28.00
72936;DHT22;61085;48.804;9.228;2022-08-23T13:54:41;29.20;28.50
72936;DHT22;61085;48.804;9.228;2022-08-23T13:57:12;29.30;28.20
72936;DHT22;61085;48.804;9.228;2022-08-23T13:59:51;29.30;28.20
72936;DHT22;61085;48.804;9.228;2022-08-23T14:02:18;29.50;28.30
72936;DHT22;61085;48.804;9.228;2022-08-23T14:04:44;29.70;27.90
72936;DHT22;61085;48.804;9.228;2022-08-23T14:07:10;29.70;27.70
72936;DHT22;61085;48.804;9.228;2022-08-23T14:09:37;29.70;27.80
72936;DHT22;61085;48.804;9.228;2022-08-23T14:12:06;29.80;27.80
72936;DHT22;61085;48.804;9.228;2022-08-23T14:14:34;30.00;28.10
72936;DHT22;61085;48.804;9.228;2022-08-23T14:17:00;30.20;28.10
72936;DHT22;61085;48.804;9.228;2022-08-23T14:19:26;30.30;28.00
72936;DHT22;61085;48.804;9.228;2022-08-23T14:21:52;30.30;27.90
72936;DHT22;61085;48.804;9.228;2022-08-23T14:24:18;30.50;27.80
72936;DHT22;61085;48.804;9.228;2022-08-23T14:26:44;30.60;27.80
72936;DHT22;61085;48.804;9.228;2022-08-23T14:29:10;30.70;27.70
72936;DHT22;61085;48.804;9.228;2022-08-23T14:31:35;30.40;27.20
72936;DHT22;61085;48.804;9.228;2022-08-23T14:34:01;30.30;27.50
72936;DHT22;61085;48.804;9.228;2022-08-23T14:36:27;30.10;27.30
72936;DHT22;61085;48.804;9.228;2022-08-23T14:38:52;30.20;27.90
72936;DHT22;61085;48.804;9.228;2022-08-23T14:41:20;30.10;27.80
72936;DHT22;61085;48.804;9.228;2022-08-23T14:43:47;29.90;27.60
72936;DHT22;61085;48.804;9.228;2022-08-23T14:46:13;29.90;27.70
72936;DHT22;61085;48.804;9.228;2022-08-23T14:48:38;29.80;27.80
72936;DHT22;61085;48.804;9.228;2022-08-23T14:51:04;29.70;28.40
72936;DHT22;61085;48.804;9.228;2022-08-23T14:53:33;29.70;28.00
72936;DHT22;61085;48.804;9.228;2022-08-23T14:56:01;29.90;27.70
72936;DHT22;61085;48.804;9.228;2022-08-23T14:58:26;29.80;27.90
72936;DHT22;61085;48.804;9.228;2022-08-23T15:00:52;29.70;27.80
72936;DHT22;61085;48.804;9.228;2022-08-23T15:03:26;29.90;27.60
72936;DHT22;61085;48.804;9.228;2022-08-23T15:05:52;30.00;27.90
72936;DHT22;61085;48.804;9.228;2022-08-23T15:08:19;30.10;27.60
72936;DHT22;61085;48.804;9.228;2022-08-23T15:10:45;30.10;27.50
72936;DHT22;61085;48.804;9.228;2022-08-23T15:13:10;30.10;27.30
72936;DHT22;61085;48.804;9.228;2022-08-23T15:15:36;30.00;27.40
72936;DHT22;61085;48.804;9.228;2022-08-23T15:18:06;30.10;27.60
72936;DHT22;61085;48.804;9.228;2022-08-23T15:20:35;30.00;27.80
72936;DHT22;61085;48.804;9.228;2022-08-23T15:23:03;29.70;27.50
72936;DHT22;61085;48.804;9.228;2022-08-23T15:25:30;29.90;27.80
72936;DHT22;61085;48.804;9.228;2022-08-23T15:27:58;29.90;27.80
72936;DHT22;61085;48.804;9.228;2022-08-23T15:30:25;30.00;27.90
72936;DHT22;61085;48.804;9.228;2022-08-23T15:32:50;30.30;27.70
72936;DHT22;61085;48.804;9.228;2022-08-23T15:35:16;30.10;27.70
72936;DHT22;61085;48.804;9.228;2022-08-23T15:37:42;30.10;27.80
72936;DHT22;61085;48.804;9.228;2022-08-23T15:40:09;30.20;27.80
72936;DHT22;61085;48.804;9.228;2022-08-23T15:45:01;30.00;27.90
72936;DHT22;61085;48.804;9.228;2022-08-23T15:47:30;29.80;28.90
72936;DHT22;61085;48.804;9.228;2022-08-23T15:49:57;29.70;28.70
72936;DHT22;61085;48.804;9.228;2022-08-23T15:52:23;29.60;28.70
72936;DHT22;61085;48.804;9.228;2022-08-23T15:54:48;29.60;28.60
72936;DHT22;61085;48.804;9.228;2022-08-23T15:57:21;29.50;28.90
72936;DHT22;61085;48.804;9.228;2022-08-23T15:59:47;29.50;28.70
72936;DHT22;61085;48.804;9.228;2022-08-23T16:02:13;29.50;28.60
72936;DHT22;61085;48.804;9.228;2022-08-23T16:04:39;29.50;28.60
72936;DHT22;61085;48.804;9.228;2022-08-23T16:07:07;29.50;28.60
72936;DHT22;61085;48.804;9.228;2022-08-23T16:09:34;29.40;28.60
72936;DHT22;61085;48.804;9.228;2022-08-23T16:12:01;29.40;28.60
72936;DHT22;61085;48.804;9.228;2022-08-23T16:14:27;29.30;28.90
72936;DHT22;61085;48.804;9.228;2022-08-23T16:16:55;29.30;29.10
72936;DHT22;61085;48.804;9.228;2022-08-23T16:19:21;29.30;28.80
72936;DHT22;61085;48.804;9.228;2022-08-23T16:21:47;29.30;28.80
72936;DHT22;61085;48.804;9.228;2022-08-23T16:24:13;29.20;28.80
72936;DHT22;61085;48.804;9.228;2022-08-23T16:26:39;29.20;28.80
72936;DHT22;61085;48.804;9.228;2022-08-23T16:29:09;29.10;28.80
72936;DHT22;61085;48.804;9.228;2022-08-23T16:31:35;29.10;28.90
72936;DHT22;61085;48.804;9.228;2022-08-23T16:34:06;29.10;28.90
72936;DHT22;61085;48.804;9.228;2022-08-23T16:36:32;29.00;29.00
72936;DHT22;61085;48.804;9.228;2022-08-23T16:38:58;29.00;28.80
72936;DHT22;61085;48.804;9.228;2022-08-23T16:41:24;28.90;28.90
72936;DHT22;61085;48.804;9.228;2022-08-23T16:43:49;28.90;29.20
72936;DHT22;61085;48.804;9.228;2022-08-23T16:46:15;28.80;29.20
72936;DHT22;61085;48.804;9.228;2022-08-23T16:48:42;28.80;29.30
72936;DHT22;61085;48.804;9.228;2022-08-23T16:51:09;28.70;29.20
72936;DHT22;61085;48.804;9.228;2022-08-23T16:53:35;28.70;29.60
72936;DHT22;61085;48.804;9.228;2022-08-23T16:56:02;28.60;29.70
72936;DHT22;61085;48.804;9.228;2022-08-23T16:58:28;28.60;29.50
72936;DHT22;61085;48.804;9.228;2022-08-23T17:00:53;28.70;29.50
72936;DHT22;61085;48.804;9.228;2022-08-23T17:03:19;28.70;29.40
72936;DHT22;61085;48.804;9.228;2022-08-23T17:05:46;28.70;29.30
72936;DHT22;61085;48.804;9.228;2022-08-23T17:08:12;28.60;29.50
72936;DHT22;61085;48.804;9.228;2022-08-23T17:10:38;28.60;29.60
72936;DHT22;61085;48.804;9.228;2022-08-23T17:13:04;28.60;29.80
72936;DHT22;61085;48.804;9.228;2022-08-23T17:15:34;28.60;29.90
72936;DHT22;61085;48.804;9.228;2022-08-23T17:18:00;28.60;30.10
72936;DHT22;61085;48.804;9.228;2022-08-23T17:20:28;28.50;30.40
72936;DHT22;61085;48.804;9.228;2022-08-23T17:22:54;28.40;30.90